Time;durP1;ratioP1;P1;durP2;ratioP2;P2;SDS_P1;SDS_P2;PMS_P1;PMS_P2;Temp;Humidity;BMP_temperature;BMP_pressure;BME280_temperature;BME280_humidity;BME280_pressure;Samples;Min_cycle;Max_cycle;Signal;HPM_P1;HPM_P2
2022/05/27 00:01:54;;;;;;;3.90;1.65;;;;;;;14.78;100.00;99223.17;1711904;82;21116;-59
2022/05/27 00:04:21;;;;;;;3.50;1.70;;;;;;;14.79;100.00;99233.03;1713566;82;21534;-60
2022/05/27 00:06:47;;;;;;;;;;;;;;;14.79;100.00;99227.55;1717750;83;21150;-61
2022/05/27 00:09:14;;;;;;;4.47;1.52;;;;;;;14.79;100.00;99228.91;1707980;82;20152;-60
2022/05/27 00:11:40;;;;;;;4.42;1.75;;;;;;;14.72;100.00;99234.02;1715312;82;21090;-60
2022/05/27 00:14:06;;;;;;;5.47;1.80;;;;;;;14.76;100.00;99239.13;1715103;82;21066;-61
2022/05/27 00:16:33;;;;;;;4.00;1.70;;;;;;;14.77;100.00;99234.69;1714880;83;21914;-61
2022/05/27 00:19:00;;;;;;;4.40;1.67;;;;;;;14.75;100.00;99242.98;1711326;82;20984;-61
2022/05/27 00:21:26;;;;;;;4.87;1.75;;;;;;;14.72;100.00;99238.13;1711317;82;21059;-61
2022/05/27 00:23:53;;;;;;;;;;;;;;;14.68;100.00;99242.05;1715449;82;21037;-61
2022/05/27 00:26:19;;;;;;;8.20;1.70;;;;;;;14.66;100.00;99244.30;1667358;85;20103;-60
2022/05/27 00:28:45;;;;;;;;;;;;;;;14.62;100.00;99250.15;1668471;86;20999;-62
2022/05/27 00:31:12;;;;;;;6.62;1.50;;;;;;;14.67;100.00;99250.56;1645107;86;20107;-60
2022/05/27 00:33:38;;;;;;;;;;;;;;;14.63;100.00;99252.33;1668379;85;21006;-61
2022/05/27 00:36:08;;;;;;;3.72;1.57;;;;;;;14.61;100.00;99258.66;1636706;86;20112;-60
2022/05/27 00:39:32;;;;;;;2.40;1.90;;;;;;;14.56;100.00;99256.84;1844903;76;22900;-60
2022/05/27 00:42:01;;;;;;;3.20;1.65;;;;;;;14.51;100.00;99267.12;1834812;77;21038;-60
2022/05/27 00:44:27;;;;;;;3.20;1.75;;;;;;;14.52;100.00;99264.08;1835620;77;21017;-61
2022/05/27 00:46:53;;;;;;;5.12;1.70;;;;;;;14.60;100.00;99267.44;1827020;77;21646;-60
2022/05/27 00:49:23;;;;;;;;;;;;;;;14.62;100.00;99261.66;1839586;77;20986;-60
2022/05/27 00:52:00;;;;;;;5.03;2.00;;;;;;;14.60;100.00;99261.95;1834255;77;20093;-60
2022/05/27 00:54:26;;;;;;;6.12;1.80;;;;;;;14.51;100.00;99266.56;1823936;77;21599;-60
2022/05/27 00:56:56;;;;;;;4.55;1.80;;;;;;;14.49;100.00;99263.30;1830167;77;21042;-60
2022/05/27 00:59:34;;;;;;;5.33;1.60;;;;;;;14.52;100.00;99272.86;1826915;77;20990;-60
2022/05/27 01:02:00;;;;;;;3.98;1.55;;;;;;;14.56;100.00;99279.34;1829778;77;21050;-59
2022/05/27 01:04:28;;;;;;;4.25;1.47;;;;;;;14.52;100.00;99274.23;1830544;77;21513;-59
2022/05/27 01:06:55;;;;;;;3.27;1.30;;;;;;;14.50;100.00;99277.26;1844888;77;21011;-60
2022/05/27 01:09:21;;;;;;;4.35;1.47;;;;;;;14.48;100.00;99274.58;1798149;78;20999;-60
2022/05/27 01:12:39;;;;;;;4.62;1.55;;;;;;;14.55;100.00;99283.19;1827453;77;21501;-60
2022/05/27 01:15:35;;;;;;;4.65;1.50;;;;;;;14.58;100.00;99282.02;1821247;78;20986;-60
2022/05/27 01:21:27;;;;;;;5.05;1.67;;;;;;;14.46;100.00;99277.63;1821548;77;21065;-61
2022/05/27 01:24:23;;;;;;;2.67;1.42;;;;;;;14.39;100.00;99290.37;1808561;77;20982;-60
2022/05/27 01:27:18;;;;;;;3.60;1.50;;;;;;;14.39;100.00;99290.37;1817743;77;21030;-59
2022/05/27 01:29:54;;;;;;;2.37;1.22;;;;;;;14.39;100.00;99286.81;1832071;77;20959;-60
2022/05/27 01:32:26;;;;;;;4.22;1.52;;;;;;;14.33;100.00;99282.55;1831070;77;21576;-59
2022/05/27 01:35:34;;;;;;;3.50;1.47;;;;;;;14.30;100.00;99287.27;1840846;77;20998;-60
2022/05/27 01:38:20;;;;;;;3.30;1.60;;;;;;;14.27;100.00;99286.52;1833235;77;21513;-60
2022/05/27 01:41:08;;;;;;;4.40;1.40;;;;;;;14.23;100.00;99281.40;1800959;77;21065;-61
2022/05/27 01:43:50;;;;;;;2.70;1.60;;;;;;;14.17;100.00;99284.78;1822595;77;21532;-60
2022/05/27 01:46:24;;;;;;;1.95;1.35;;;;;;;14.08;100.00;99278.97;1831557;77;21596;-60
2022/05/27 01:49:08;;;;;;;4.08;1.50;;;;;;;13.98;100.00;99278.64;1840555;77;21002;-60
2022/05/27 01:51:43;;;;;;;3.77;1.10;;;;;;;13.93;100.00;99278.17;1839376;77;21070;-59
2022/05/27 01:54:15;;;;;;;3.67;1.45;;;;;;;13.93;100.00;99288.30;1812142;77;21041;-59
2022/05/27 01:56:52;;;;;;;6.55;1.60;;;;;;;13.90;100.00;99285.63;1841478;77;21041;-60
2022/05/27 01:59:32;;;;;;;3.37;1.60;;;;;;;13.87;100.00;99295.00;1828053;77;20999;-60
2022/05/27 02:02:12;;;;;;;3.27;1.60;;;;;;;13.81;100.00;99298.95;1826953;77;21058;-60
2022/05/27 02:04:50;;;;;;;3.37;1.45;;;;;;;13.75;100.00;99300.96;1840789;77;21505;-59
2022/05/27 02:07:28;;;;;;;3.05;1.57;;;;;;;13.73;100.00;99305.13;1830226;77;21132;-60
2022/05/27 02:10:00;;;;;;;4.58;1.90;;;;;;;13.68;100.00;99307.94;1829133;77;20978;-60
2022/05/27 02:12:31;;;;;;;3.83;1.60;;;;;;;13.58;100.00;99312.23;1827303;77;21037;-60
2022/05/27 02:15:11;;;;;;;7.75;1.62;;;;;;;13.50;100.00;99317.05;1815483;77;21651;-61
2022/05/27 02:17:42;;;;;;;3.70;1.40;;;;;;;13.50;100.00;99330.73;1820302;77;21469;-60
2022/05/27 02:20:14;;;;;;;4.15;1.67;;;;;;;13.52;100.00;99332.05;1831354;77;21485;-60
2022/05/27 02:22:54;;;;;;;3.08;1.52;;;;;;;13.48;100.00;99329.65;1820985;77;20951;-60
2022/05/27 02:25:28;;;;;;;2.92;1.60;;;;;;;13.42;100.00;99333.05;1834259;77;20987;-60
2022/05/27 02:28:11;;;;;;;3.37;1.75;;;;;;;13.39;100.00;99330.09;1832029;77;21113;-60
2022/05/27 02:30:42;;;;;;;7.20;1.55;;;;;;;13.41;100.00;99338.24;1837791;77;20987;-60
2022/05/27 02:36:00;;;;;;;3.58;1.60;;;;;;;13.53;100.00;99331.48;1823129;78;21046;-60
2022/05/27 02:38:27;;;;;;;3.00;1.60;;;;;;;13.55;100.00;99328.70;1815065;77;21509;-60
2022/05/27 02:41:32;;;;;;;7.00;1.62;;;;;;;13.53;100.00;99326.02;1794836;78;21053;-61
2022/05/27 02:44:10;;;;;;;4.47;1.60;;;;;;;13.54;100.00;99329.80;1795701;78;20989;-60
2022/05/27 02:47:03;;;;;;;5.12;1.32;;;;;;;13.61;100.00;99337.06;1798208;78;21013;-60
2022/05/27 02:49:55;;;;;;;3.15;1.30;;;;;;;13.69;100.00;99334.19;1800117;78;21556;-60
2022/05/27 02:52:44;;;;;;;4.50;1.50;;;;;;;13.66;100.00;99330.70;1798783;78;21031;-61
2022/05/27 02:55:49;;;;;;;4.28;1.35;;;;;;;13.64;100.00;99337.03;1790765;78;21505;-60
2022/05/27 02:58:16;;;;;;;3.35;1.27;;;;;;;13.67;100.00;99346.00;1771286;78;21885;-60
2022/05/27 03:00:44;;;;;;;4.08;1.20;;;;;;;13.75;100.00;99342.55;1806005;78;21066;-60
2022/05/27 03:03:10;;;;;;;4.00;1.22;;;;;;;13.78;100.00;99352.33;1801540;78;21613;-61
2022/05/27 03:06:13;;;;;;;5.25;1.75;;;;;;;13.81;100.00;99348.20;1782009;78;21104;-60
2022/05/27 03:09:07;;;;;;;3.92;1.60;;;;;;;13.78;100.00;99352.91;1794863;78;21006;-60
2022/05/27 03:11:57;;;;;;;2.87;1.30;;;;;;;13.74;100.00;99355.99;1792291;78;21564;-60
2022/05/27 03:14:46;;;;;;;2.98;1.30;;;;;;;13.81;100.00;99361.33;1793107;80;21081;-60
2022/05/27 03:17:30;;;;;;;4.03;1.60;;;;;;;13.93;100.00;99364.37;1792687;78;21034;-60
2022/05/27 03:20:32;;;;;;;6.72;1.52;;;;;;;13.93;100.00;99364.37;1796148;78;21017;-61
2022/05/27 03:23:37;;;;;;;4.85;1.40;;;;;;;13.89;100.00;99363.89;1793975;78;21490;-60
2022/05/27 03:26:42;;;;;;;5.80;1.60;;;;;;;13.85;100.00;99375.22;1799079;78;21120;-60
2022/05/27 03:29:17;;;;;;;4.17;1.55;;;;;;;13.93;100.00;99369.84;1800279;78;21064;-60
2022/05/27 03:31:54;;;;;;;4.28;1.62;;;;;;;14.00;100.00;99364.52;1795661;78;21491;-60
2022/05/27 03:34:41;;;;;;;3.67;1.62;;;;;;;14.00;100.00;99360.41;1792379;78;21037;-60
2022/05/27 03:37:24;;;;;;;5.92;1.50;;;;;;;14.03;100.00;99355.73;1792500;78;21600;-61
2022/05/27 03:40:07;;;;;;;3.90;1.40;;;;;;;14.09;100.00;99350.40;1819338;77;21505;-60
2022/05/27 03:42:34;;;;;;;3.70;1.30;;;;;;;14.13;100.00;99348.68;1840582;77;20963;-60
2022/05/27 03:45:08;;;;;;;5.60;1.20;;;;;;;14.17;100.00;99361.43;1828310;77;21014;-60
2022/05/27 03:47:35;;;;;;;2.65;1.15;;;;;;;14.21;100.00;99358.34;1832659;77;21436;-61
2022/05/27 03:50:02;;;;;;;4.05;1.10;;;;;;;14.22;100.00;99358.61;1834638;77;20966;-61
2022/05/27 03:52:33;;;;;;;4.55;1.17;;;;;;;14.30;100.00;99352.98;1839057;77;20958;-60
2022/05/27 03:55:00;;;;;;;3.42;1.22;;;;;;;14.40;100.00;99349.50;1840287;77;21002;-61
2022/05/27 03:57:27;;;;;;;8.13;1.25;;;;;;;14.51;100.00;99350.66;1811966;77;21066;-61
2022/05/27 03:59:53;;;;;;;3.02;1.27;;;;;;;14.52;100.00;99348.98;1828128;77;21034;-60
2022/05/27 04:02:19;;;;;;;;;;;;;;;14.53;100.00;99356.06;1837550;77;21104;-60
2022/05/27 04:04:46;;;;;;;4.83;1.30;;;;;;;14.63;100.00;99359.16;1830981;77;20113;-60
2022/05/27 04:07:14;;;;;;;3.98;1.00;;;;;;;14.65;100.00;99354.17;1827904;77;21050;-60
2022/05/27 04:09:41;;;;;;;2.67;1.00;;;;;;;14.66;100.00;99353.06;1838268;77;21062;-61
2022/05/27 04:12:08;;;;;;;;;;;;;;;14.70;100.00;99353.48;1837096;77;21065;-62
2022/05/27 04:14:35;;;;;;;3.27;1.17;;;;;;;14.77;100.00;99357.98;1828283;77;20128;-60
2022/05/27 04:19:47;;;;;;;4.97;1.98;;;;;;;14.83;100.00;99345.00;1794369;78;21053;-61
2022/05/27 04:22:13;;;;;;;;;;;;;;;14.87;100.00;99348.75;1830342;77;21101;-60
2022/05/27 04:24:41;;;;;;;3.47;1.20;;;;;;;14.97;100.00;99353.99;1824875;77;20698;-60
2022/05/27 04:27:10;;;;;;;2.87;1.20;;;;;;;15.04;100.00;99358.48;1827595;77;21085;-60
2022/05/27 04:29:41;;;;;;;3.25;1.27;;;;;;;15.21;100.00;99361.36;1804457;77;21021;-60
2022/05/27 04:32:09;;;;;;;4.00;1.20;;;;;;;15.30;100.00;99357.33;1832756;77;21101;-61
2022/05/27 04:34:36;;;;;;;4.17;1.27;;;;;;;15.40;100.00;99363.37;1833984;77;21057;-61
2022/05/27 04:37:03;;;;;;;4.25;1.20;;;;;;;15.51;100.00;99361.21;1833442;77;21030;-61
2022/05/27 04:39:31;;;;;;;5.03;1.40;;;;;;;15.70;100.00;99359.61;1806139;78;21433;-60
2022/05/27 04:41:57;;;;;;;;;;;;;;;15.92;100.00;99359.02;1801301;78;21014;-59
2022/05/27 04:44:23;;;;;;;5.95;1.40;;;;;;;16.09;100.00;99350.59;1800423;78;20109;-61
2022/05/27 04:46:49;;;;;;;;;;;;;;;16.11;100.00;99348.35;1807276;78;21085;-60
2022/05/27 04:52:00;;;;;;;2.08;0.90;;;;;;;16.04;100.00;99344.70;1789150;78;21018;-60
2022/05/27 04:54:27;;;;;;;7.08;1.10;;;;;;;16.05;100.00;99352.38;1795178;78;21588;-60
2022/05/27 04:56:54;;;;;;;;;;;;;;;16.07;100.00;99355.05;1805442;78;20993;-60
2022/05/27 04:59:21;;;;;;;3.22;0.98;;;;;;;16.07;100.00;99353.67;1796341;78;20095;-60
2022/05/27 05:01:47;;;;;;;4.10;1.22;;;;;;;15.94;100.00;99358.71;1798002;78;21036;-60
2022/05/27 05:04:14;;;;;;;3.05;0.90;;;;;;;15.95;100.00;99356.19;1799297;78;21041;-59
2022/05/27 05:06:40;;;;;;;;;;;;;;;15.97;100.00;99353.95;1804083;78;20986;-59
2022/05/27 05:09:07;;;;;;;2.85;0.90;;;;;;;15.97;100.00;99366.31;1818335;78;20121;-60
2022/05/27 05:11:33;;;;;;;3.70;0.80;;;;;;;15.96;100.00;99362.49;1773130;78;21514;-59
2022/05/27 05:13:59;;;;;;;;;;;;;;;15.98;100.00;99367.13;1816498;78;21021;-59
2022/05/27 05:16:25;;;;;;;3.30;0.93;;;;;;;15.93;100.00;99371.62;1802396;78;20443;-60
2022/05/27 05:18:52;;;;;;;;;;;;;;;15.89;100.00;99365.70;1798622;78;20998;-58
2022/05/27 05:21:18;;;;;;;4.75;1.15;;;;;;;15.88;100.00;99358.58;1797865;78;20268;-59
2022/05/27 05:23:45;;;;;;;2.55;0.78;;;;;;;15.83;100.00;99360.92;1797627;78;21309;-58
2022/05/27 05:26:12;;;;;;;4.95;0.90;;;;;;;15.93;100.00;99357.89;1794641;78;21022;-58
2022/05/27 05:28:38;;;;;;;5.33;1.00;;;;;;;16.03;100.00;99349.94;1795315;80;21093;-58
2022/05/27 05:31:06;;;;;;;2.58;0.80;;;;;;;16.10;100.00;99345.36;1790333;78;21089;-60
2022/05/27 05:33:33;;;;;;;5.05;1.05;;;;;;;16.12;100.00;99344.49;1794600;78;21378;-61
2022/05/27 05:36:00;;;;;;;2.45;0.80;;;;;;;16.15;100.00;99339.17;1801151;78;21557;-61
2022/05/27 05:38:27;;;;;;;;;;;;;;;16.21;100.00;99344.76;1798518;78;20969;-62
2022/05/27 05:40:54;;;;;;;3.37;1.20;;;;;;;16.30;100.00;99350.27;1803756;78;20416;-62
2022/05/27 05:43:21;;;;;;;4.33;0.80;;;;;;;16.28;100.00;99348.41;1807213;78;21496;-62
2022/05/27 05:45:49;;;;;;;2.90;0.93;;;;;;;16.28;100.00;99345.66;1802483;79;21021;-63
2022/05/27 05:48:15;;;;;;;3.98;0.85;;;;;;;16.29;100.00;99345.92;1803802;79;21005;-62
2022/05/27 05:50:42;;;;;;;3.92;0.70;;;;;;;16.30;100.00;99355.20;1802862;78;21076;-62
2022/05/27 05:53:08;;;;;;;4.00;0.90;;;;;;;16.37;100.00;99348.67;1805589;78;21001;-63
2022/05/27 05:55:35;;;;;;;;;;;;;;;16.58;100.00;99342.63;1806765;79;21658;-63
2022/05/27 05:58:03;;;;;;;4.17;1.05;;;;;;;16.91;100.00;99332.23;1804082;79;20101;-62
2022/05/27 06:00:31;;;;;;;4.72;0.70;;;;;;;17.18;100.00;99335.79;1804523;78;21064;-63
2022/05/27 06:02:57;;;;;;;3.17;0.70;;;;;;;17.61;100.00;99341.23;1801315;79;20923;-62
2022/05/27 06:05:24;;;;;;;5.03;1.00;;;;;;;17.99;100.00;99327.53;1804308;78;20985;-63
2022/05/27 06:07:52;;;;;;;3.30;0.80;;;;;;;18.20;100.00;99327.84;1812568;78;20952;-61
2022/05/27 06:10:19;;;;;;;3.70;0.78;;;;;;;18.36;100.00;99323.37;1818775;78;21001;-62
2022/05/27 06:12:46;;;;;;;2.25;0.75;;;;;;;18.42;100.00;99322.63;1806103;78;20993;-63
2022/05/27 06:15:13;;;;;;;5.37;0.90;;;;;;;18.35;100.00;99312.70;1804075;78;21092;-62
2022/05/27 06:17:40;;;;;;;3.02;1.00;;;;;;;18.46;100.00;99318.03;1800347;79;21044;-62
2022/05/27 06:20:07;;;;;;;5.15;1.27;;;;;;;18.65;100.00;99322.57;1794025;78;21033;-62
2022/05/27 06:22:34;;;;;;;3.40;0.70;;;;;;;18.89;100.00;99321.90;1815244;78;21013;-61
2022/05/27 06:25:00;;;;;;;4.95;0.95;;;;;;;19.15;100.00;99309.27;1806205;78;21032;-62
2022/05/27 06:27:27;;;;;;;4.05;1.00;;;;;;;19.34;100.00;99306.23;1791860;78;21123;-61
2022/05/27 06:35:27;;;;;;;4.40;1.40;;;;;;;19.63;100.00;99294.27;1805539;77;21654;-60
2022/05/27 06:37:54;;;;;;;4.45;1.10;;;;;;;19.75;100.00;99299.83;1802097;78;21010;-61
2022/05/27 06:40:22;;;;;;;17.80;5.62;;;;;;;20.15;100.00;99284.80;1801171;77;21024;-60
2022/05/27 06:42:50;;;;;;;5.12;1.47;;;;;;;20.37;100.00;99285.50;1801342;78;20986;-60
2022/05/27 06:45:17;;;;;;;3.25;1.00;;;;;;;20.31;100.00;99289.87;1819743;78;21001;-60
2022/05/27 06:47:45;;;;;;;2.85;0.80;;;;;;;20.19;100.00;99282.14;1775709;80;21034;-59
2022/05/27 06:50:12;;;;;;;13.45;3.50;;;;;;;20.09;100.00;99283.39;1799300;78;20990;-59
2022/05/27 06:52:40;;;;;;;13.28;3.92;;;;;;;20.19;100.00;99282.14;1793720;78;20959;-57
2022/05/27 06:55:09;;;;;;;3.40;0.80;;;;;;;20.41;100.00;99278.91;1793764;78;21406;-56
2022/05/27 06:57:36;;;;;;;2.60;0.70;;;;;;;20.76;100.00;99275.06;1795940;78;21477;-57
2022/05/27 07:00:06;;;;;;;1.80;0.80;;;;;;;21.13;100.00;99272.98;1793723;78;21002;-57
2022/05/27 07:02:33;;;;;;;1.47;0.60;;;;;;;21.49;100.00;99267.27;1803805;78;21525;-59
2022/05/27 07:04:59;;;;;;;1.77;0.50;;;;;;;21.60;100.00;99271.70;1809723;78;21580;-59
2022/05/27 07:07:28;;;;;;;3.67;0.80;;;;;;;21.86;100.00;99265.64;1797042;78;21501;-60
2022/05/27 07:09:54;;;;;;;2.50;0.78;;;;;;;21.86;100.00;99265.64;1794275;78;21025;-61
2022/05/27 07:12:21;;;;;;;4.30;0.70;;;;;;;22.09;100.00;99255.55;1793247;78;20998;-59
2022/05/27 07:14:47;;;;;;;2.80;0.70;;;;;;;22.28;100.00;99256.39;1796309;78;21488;-56
2022/05/27 07:17:14;;;;;;;3.80;0.80;;;;;;;22.51;100.00;99249.60;1795663;78;20985;-59
2022/05/27 07:19:41;;;;;;;4.70;0.70;;;;;;;22.66;95.31;99250.14;1792780;78;20986;-58
2022/05/27 07:22:10;;;;;;;2.45;0.70;;;;;;;22.60;76.90;99248.80;1793026;78;21065;-59
2022/05/27 07:24:38;;;;;;;3.77;1.00;;;;;;;22.41;78.21;99242.42;1798922;78;21005;-59
2022/05/27 07:27:05;;;;;;;3.62;0.62;;;;;;;22.32;76.54;99237.88;1795615;78;21096;-59
2022/05/27 07:29:32;;;;;;;2.35;0.68;;;;;;;22.53;77.59;99241.70;1768440;78;20978;-58
2022/05/27 07:31:59;;;;;;;2.75;0.60;;;;;;;22.78;77.30;99236.14;1793537;79;21284;-58
2022/05/27 07:34:25;;;;;;;6.58;1.82;;;;;;;22.94;72.54;99244.98;1795164;80;21126;-58
2022/05/27 07:36:53;;;;;;;3.10;0.80;;;;;;;22.99;66.82;99247.48;1789793;78;21060;-59
2022/05/27 07:39:19;;;;;;;5.53;1.42;;;;;;;23.00;67.74;99248.48;1796757;78;21041;-59
2022/05/27 07:41:47;;;;;;;2.92;0.68;;;;;;;23.10;64.62;99256.22;1824895;77;21057;-58
2022/05/27 07:44:13;;;;;;;8.10;3.10;;;;;;;22.94;57.55;99240.83;1818687;77;21020;-58
2022/05/27 07:46:40;;;;;;;2.15;0.60;;;;;;;22.50;60.22;99242.44;1831632;77;21006;-58
2022/05/27 07:49:07;;;;;;;2.45;0.80;;;;;;;22.38;59.21;99232.06;1800391;78;21045;-59
2022/05/27 07:51:33;;;;;;;27.75;10.85;;;;;;;22.23;63.49;99234.52;1825571;77;21030;-59
2022/05/27 07:54:00;;;;;;;2.77;0.80;;;;;;;22.30;66.25;99231.91;1822393;78;20998;-59
2022/05/27 07:56:27;;;;;;;2.83;0.72;;;;;;;22.42;63.87;99252.36;1826303;77;20995;-58
2022/05/27 07:58:55;;;;;;;5.00;0.90;;;;;;;22.39;61.94;99235.06;1823555;77;21006;-58
2022/05/27 08:01:21;;;;;;;2.65;0.80;;;;;;;22.44;61.02;99237.54;1823839;77;21636;-58
2022/05/27 08:03:47;;;;;;;6.72;2.12;;;;;;;22.56;61.89;99234.66;1824792;78;21053;-58
2022/05/27 08:06:14;;;;;;;7.53;1.72;;;;;;;22.69;63.61;99211.17;1824651;77;21046;-59
2022/05/27 08:08:41;;;;;;;10.63;2.95;;;;;;;22.85;61.25;99224.99;1825863;77;21002;-58
2022/05/27 08:11:09;;;;;;;5.90;1.65;;;;;;;22.84;61.34;99200.59;1823471;77;20986;-58
2022/05/27 08:13:35;;;;;;;4.87;1.27;;;;;;;23.17;58.10;99217.49;1829415;77;20964;-58
2022/05/27 08:16:02;;;;;;;9.18;3.40;;;;;;;23.27;56.02;99216.11;1840900;77;21058;-59
2022/05/27 08:18:29;;;;;;;1.72;0.60;;;;;;;23.28;57.78;99214.34;1811643;78;20939;-59
2022/05/27 08:20:55;;;;;;;3.55;0.75;;;;;;;23.52;58.94;99221.56;1825474;77;21025;-58
2022/05/27 08:23:22;;;;;;;3.83;1.12;;;;;;;23.66;57.27;99217.64;1827865;77;20962;-59
2022/05/27 08:25:48;;;;;;;2.30;0.78;;;;;;;23.76;59.34;99211.45;1822832;77;21514;-58
2022/05/27 08:28:16;;;;;;;38.95;15.93;;;;;;;23.98;57.18;99198.71;1821645;77;20942;-59
2022/05/27 08:30:44;;;;;;;48.90;19.50;;;;;;;24.16;56.18;99205.34;1827392;77;21029;-59
2022/05/27 08:33:11;;;;;;;35.60;14.50;;;;;;;24.27;54.88;99206.89;1827800;77;20958;-58
2022/05/27 08:38:26;;;;;;;9.05;3.15;;;;;;;24.49;51.07;99199.06;1820304;77;20959;-59
2022/05/27 08:41:26;;;;;;;2.55;1.35;;;;;;;24.51;50.33;99218.18;1825723;78;21065;-59
2022/05/27 08:44:17;;;;;;;23.70;9.38;;;;;;;24.19;47.00;99209.37;1824862;77;20982;-58
2022/05/27 08:47:10;;;;;;;5.00;0.90;;;;;;;23.62;52.38;99218.75;1827770;77;21521;-57
2022/05/27 08:49:41;;;;;;;3.80;0.90;;;;;;;23.68;54.12;99214.48;1834322;77;21854;-59
2022/05/27 08:52:24;;;;;;;3.62;0.75;;;;;;;23.60;56.09;99214.13;1828251;77;21014;-59
2022/05/27 08:54:55;;;;;;;4.70;0.70;;;;;;;23.46;54.32;99211.10;1836906;77;21038;-59
2022/05/27 09:00:20;;;;;;;5.67;1.02;;;;;;;22.78;57.07;99202.03;1824933;77;20994;-59
2022/05/27 09:02:57;;;;;;;16.30;6.37;;;;;;;22.78;57.07;99202.03;1828422;77;21450;-59
2022/05/27 09:05:43;;;;;;;4.28;0.80;;;;;;;22.66;61.62;99215.46;1832605;77;21065;-59
2022/05/27 09:08:19;;;;;;;3.05;1.00;;;;;;;22.60;58.04;99205.02;1780722;77;20971;-58
2022/05/27 09:11:12;;;;;;;4.97;1.20;;;;;;;22.23;57.54;99210.14;1830040;77;21070;-59
2022/05/27 09:13:49;;;;;;;2.83;0.60;;;;;;;21.72;64.60;99200.97;1832554;77;20966;-59
2022/05/27 09:16:21;;;;;;;2.17;0.72;;;;;;;21.72;64.60;99200.97;1836754;76;21443;-59
2022/05/27 09:19:25;;;;;;;3.52;0.60;;;;;;;21.61;60.31;99204.08;1844226;77;21025;-60
2022/05/27 09:22:12;;;;;;;3.40;0.80;;;;;;;21.55;69.38;99202.71;1809751;77;21074;-59
2022/05/27 09:24:47;;;;;;;3.00;0.85;;;;;;;21.92;74.63;99193.00;1811943;77;21490;-59
2022/05/27 09:27:30;;;;;;;3.55;0.80;;;;;;;22.18;76.50;99194.58;1827541;77;21081;-59
2022/05/27 09:30:08;;;;;;;4.30;0.90;;;;;;;22.44;73.75;99188.43;1816752;77;20919;-59
2022/05/27 09:32:54;;;;;;;4.28;0.80;;;;;;;22.63;82.55;99194.58;1797630;77;20970;-59
2022/05/27 09:35:29;;;;;;;5.60;1.10;;;;;;;22.90;79.75;99190.80;1823734;77;21514;-59
2022/05/27 09:38:00;;;;;;;5.78;0.80;;;;;;;23.09;76.29;99182.45;1821299;77;21378;-56
2022/05/27 09:40:57;;;;;;;2.90;0.80;;;;;;;23.24;69.69;99171.00;1793430;78;20950;-56
2022/05/27 09:43:38;;;;;;;2.85;0.60;;;;;;;23.22;66.58;99168.61;1794548;78;20993;-57
2022/05/27 09:46:09;;;;;;;5.53;0.72;;;;;;;22.74;66.87;99165.89;1792746;78;21513;-58
2022/05/27 09:48:35;;;;;;;2.65;0.68;;;;;;;22.74;66.87;99165.89;1794158;78;21005;-59
2022/05/27 09:51:05;;;;;;;2.75;0.70;;;;;;;22.59;66.57;99163.19;1792911;78;21005;-58
2022/05/27 09:53:35;;;;;;;2.25;0.62;;;;;;;22.42;64.33;99161.66;1794305;78;21432;-58
2022/05/27 09:56:08;;;;;;;3.92;0.60;;;;;;;22.29;67.95;99156.81;1765526;80;21093;-59
2022/05/27 09:58:37;;;;;;;3.22;0.80;;;;;;;22.35;66.96;99163.47;1791435;78;20935;-56
2022/05/27 10:01:24;;;;;;;4.83;0.90;;;;;;;22.48;72.36;99153.84;1788507;78;21061;-59
2022/05/27 10:04:07;;;;;;;2.98;0.80;;;;;;;22.59;75.36;99155.67;1800709;78;21030;-57
2022/05/27 10:06:35;;;;;;;4.30;0.72;;;;;;;22.69;74.22;99153.72;1793555;78;20994;-58
2022/05/27 10:09:27;;;;;;;3.00;0.70;;;;;;;22.82;77.78;99134.94;1794203;78;20993;-58
2022/05/27 10:11:57;;;;;;;4.33;0.50;;;;;;;22.96;72.56;99137.17;1796165;78;20990;-59
2022/05/27 10:14:33;;;;;;;4.50;1.45;;;;;;;23.11;71.43;99134.88;1768866;78;20961;-58
2022/05/27 10:17:05;;;;;;;4.33;0.90;;;;;;;23.24;65.50;99139.87;1819601;78;21005;-58
2022/05/27 10:19:32;;;;;;;5.28;0.98;;;;;;;23.30;64.54;99132.87;1816796;78;21366;-58
2022/05/27 10:22:02;;;;;;;2.35;0.90;;;;;;;23.24;64.82;99134.91;1794311;78;20974;-58
2022/05/27 10:24:33;;;;;;;2.85;0.90;;;;;;;23.12;61.68;99132.33;1800558;78;21437;-58
2022/05/27 10:27:05;;;;;;;1.87;0.72;;;;;;;23.12;61.68;99132.33;1807797;78;21576;-58
2022/05/27 10:29:34;;;;;;;2.17;0.80;;;;;;;23.07;62.69;99126.48;1801155;78;20934;-59
2022/05/27 10:32:01;;;;;;;2.58;0.78;;;;;;;23.01;61.69;99119.64;1795797;78;21009;-57
2022/05/27 10:34:45;;;;;;;2.67;0.90;;;;;;;22.84;71.82;99118.73;1795557;78;20922;-57
2022/05/27 10:37:40;;;;;;;2.33;0.60;;;;;;;22.84;71.82;99118.73;1795491;78;21544;-58
2022/05/27 10:40:35;;;;;;;4.25;0.90;;;;;;;23.14;63.86;99121.64;1800131;78;20931;-58
2022/05/27 10:43:35;;;;;;;6.53;1.70;;;;;;;23.14;63.86;99121.64;1792099;77;21847;-58
2022/05/27 10:46:04;;;;;;;3.40;0.90;;;;;;;22.94;59.16;99120.09;1838198;77;21050;-57
2022/05/27 10:48:58;;;;;;;2.37;1.00;;;;;;;22.65;58.97;99111.78;1833148;77;20947;-58
2022/05/27 10:51:57;;;;;;;5.70;0.98;;;;;;;22.39;63.22;99108.28;1818676;77;21081;-58
2022/05/27 10:55:01;;;;;;;4.87;1.00;;;;;;;22.13;67.66;99103.41;1827336;77;21045;-58
2022/05/27 11:04:24;;;;;;;3.10;1.10;;;;;;;21.96;74.05;99098.86;1802455;77;21009;-58
2022/05/27 11:07:15;;;;;;;3.92;1.30;;;;;;;21.89;69.88;99098.09;1820529;77;21109;-59
2022/05/27 11:09:58;;;;;;;2.12;1.22;;;;;;;21.79;72.66;99091.70;1818879;77;20973;-58
2022/05/27 11:16:07;;;;;;;4.78;1.20;;;;;;;21.86;81.30;99090.48;1830616;77;20907;-58
2022/05/27 11:19:05;;;;;;;4.85;1.12;;;;;;;21.90;77.86;99087.24;1836122;77;21371;-58
2022/05/27 11:22:27;;;;;;;4.78;1.20;;;;;;;21.90;86.39;99082.25;1840951;77;21042;-59
2022/05/27 11:25:25;;;;;;;3.37;1.30;;;;;;;21.87;79.44;99072.70;1828506;77;21387;-59
2022/05/27 11:28:30;;;;;;;2.05;1.05;;;;;;;22.08;88.45;99065.45;1857478;77;21462;-60
2022/05/27 11:31:25;;;;;;;2.45;0.78;;;;;;;22.43;85.93;99067.56;1825409;77;21054;-58
2022/05/27 11:34:14;;;;;;;7.15;1.57;;;;;;;22.59;71.21;99059.97;1824454;77;21465;-58
2022/05/27 11:37:09;;;;;;;3.15;0.90;;;;;;;22.47;74.64;99053.19;1836821;76;21372;-58
2022/05/27 11:40:08;;;;;;;4.97;1.10;;;;;;;22.44;73.97;99037.88;1831656;77;20998;-60
2022/05/27 11:43:05;;;;;;;3.77;1.00;;;;;;;22.49;82.96;99038.97;1832545;77;21513;-59
2022/05/27 11:45:32;;;;;;;3.47;0.85;;;;;;;22.64;77.07;99038.84;1829264;77;21018;-59
2022/05/27 11:48:08;;;;;;;3.60;0.90;;;;;;;22.62;73.77;99036.23;1826904;77;21078;-59
2022/05/27 11:50:54;;;;;;;3.10;0.90;;;;;;;22.54;72.21;99031.14;1835946;77;21042;-59
2022/05/27 11:53:35;;;;;;;3.52;0.90;;;;;;;22.43;72.15;99028.74;1835414;77;21453;-59
2022/05/27 11:56:38;;;;;;;5.12;0.90;;;;;;;22.24;74.05;99033.75;1836612;77;21137;-60
2022/05/27 11:59:19;;;;;;;2.77;1.15;;;;;;;22.03;78.81;99036.09;1830007;77;21065;-59
2022/05/27 12:02:03;;;;;;;1.80;0.75;;;;;;;21.85;86.48;99022.41;1838278;77;21117;-60
2022/05/27 12:04:55;;;;;;;2.45;0.90;;;;;;;21.88;81.38;99023.64;1832042;77;21023;-59
2022/05/27 12:07:36;;;;;;;4.50;0.90;;;;;;;22.03;80.07;99025.58;1832293;77;21113;-59
2022/05/27 12:10:36;;;;;;;4.30;0.80;;;;;;;22.19;78.11;99014.62;1842758;77;20964;-60
2022/05/27 12:13:28;;;;;;;4.12;0.75;;;;;;;22.30;81.98;99018.41;1837061;77;21512;-59
2022/05/27 12:16:02;;;;;;;4.62;1.40;;;;;;;22.39;83.87;99009.84;1829659;77;21117;-59
2022/05/27 12:18:38;;;;;;;3.62;0.95;;;;;;;22.50;85.26;99005.88;1830798;77;21501;-60
2022/05/27 12:21:07;;;;;;;3.15;0.90;;;;;;;22.66;86.43;98995.50;1828074;77;21631;-59
2022/05/27 12:23:37;;;;;;;4.58;1.20;;;;;;;22.81;88.61;98987.67;1826762;77;20975;-59
2022/05/27 12:26:04;;;;;;;4.55;0.80;;;;;;;22.98;92.21;98985.77;1830711;77;21061;-59
2022/05/27 12:28:33;;;;;;;2.10;0.80;;;;;;;23.15;78.16;98973.34;1833490;77;21064;-59
2022/05/27 12:31:01;;;;;;;2.12;0.80;;;;;;;23.17;74.01;98966.23;1829400;77;21054;-58
2022/05/27 12:33:29;;;;;;;4.00;0.90;;;;;;;22.95;71.42;98968.48;1830523;77;21292;-60
2022/05/27 12:36:05;;;;;;;2.35;0.80;;;;;;;22.95;71.42;98968.48;1828851;77;21101;-60
2022/05/27 12:38:49;;;;;;;3.95;0.90;;;;;;;22.81;69.24;98959.92;1845985;77;21416;-59
2022/05/27 12:41:37;;;;;;;4.08;0.80;;;;;;;22.58;67.11;98964.64;1826201;77;21037;-58